createdAt,value
2019-01-02T00:02:50.032Z,25.62
2019-01-02T00:06:54.559Z,28.73
2019-01-02T00:10:59.070Z,30.00
2019-01-02T00:15:03.910Z,28.77
2019-01-02T00:19:08.439Z,22.70
2019-01-02T00:23:13.385Z,17.20
2019-01-02T00:27:17.914Z,19.43
2019-01-02T00:31:22.614Z,19.80
2019-01-02T00:35:27.156Z,23.87
2019-01-02T00:39:32.109Z,25.25
2019-01-02T00:43:36.635Z,25.13
2019-01-02T00:47:41.574Z,24.07
2019-01-02T00:51:46.076Z,24.10
2019-01-02T00:55:50.928Z,26.57
2019-01-02T00:59:55.494Z,27.55
2019-01-02T01:04:00.328Z,26.80
2019-01-02T01:08:04.859Z,26.13
2019-01-02T01:12:09.384Z,28.30
2019-01-02T01:16:13.991Z,30.17
2019-01-02T01:20:20.263Z,32.45
2019-01-02T01:24:24.807Z,28.52
2019-01-02T01:28:29.756Z,28.25
2019-01-02T01:32:34.242Z,34.10
2019-01-02T01:36:38.786Z,36.42
2019-01-02T01:40:43.497Z,32.45
2019-01-02T01:44:48.004Z,35.20
2019-01-02T01:48:53.025Z,28.83
2019-01-02T01:52:57.655Z,31.17
2019-01-02T01:57:02.237Z,32.63
2019-01-02T02:01:07.097Z,37.67
2019-01-02T02:05:11.636Z,34.97
2019-01-02T02:09:16.180Z,34.67
2019-01-02T02:13:21.220Z,33.90
2019-01-02T02:17:25.752Z,34.70
2019-01-02T02:21:30.328Z,35.67
2019-01-02T02:25:35.371Z,34.98
2019-01-02T02:29:39.899Z,32.28
2019-01-02T02:33:44.394Z,31.57
2019-01-02T02:37:49.127Z,32.48
2019-01-02T02:41:53.671Z,34.78
2019-01-02T02:45:58.518Z,34.45
2019-01-02T02:50:03.437Z,39.63
2019-01-02T02:54:07.994Z,38.23
2019-01-02T02:58:12.943Z,42.38
2019-01-02T03:02:17.910Z,38.63
2019-01-02T03:06:24.091Z,42.30
2019-01-02T03:10:28.940Z,44.70
2019-01-02T03:14:33.791Z,42.25
2019-01-02T03:18:38.335Z,42.88
2019-01-02T03:22:42.989Z,45.97
2019-01-02T03:26:47.822Z,39.18
2019-01-02T03:30:52.403Z,41.73
2019-01-02T03:34:57.353Z,44.65
2019-01-02T03:39:01.887Z,49.83
2019-01-02T03:43:06.408Z,44.87
2019-01-02T03:47:11.018Z,54.35
2019-01-02T03:51:15.543Z,44.77
2019-01-02T03:55:20.128Z,45.83
2019-01-02T03:59:24.668Z,43.35
2019-01-02T04:03:29.338Z,45.30
2019-01-02T04:07:33.878Z,50.00
2019-01-02T04:11:38.433Z,52.25
2019-01-02T04:15:42.956Z,47.50
2019-01-02T04:19:47.507Z,43.33
2019-01-02T04:23:52.188Z,47.27
2019-01-02T04:27:56.755Z,43.13
2019-01-02T04:32:01.301Z,48.28
2019-01-02T04:36:05.819Z,51.18
2019-01-02T04:40:12.216Z,47.58
2019-01-02T04:44:16.755Z,46.27
2019-01-02T04:48:21.339Z,53.25
2019-01-02T04:52:25.888Z,45.25
2019-01-02T04:56:30.440Z,45.30
2019-01-02T05:00:35.003Z,48.48
2019-01-02T05:04:39.548Z,43.13
2019-01-02T05:08:44.094Z,41.97
2019-01-02T05:12:48.667Z,44.23
2019-01-02T05:16:53.216Z,43.38
2019-01-02T05:20:57.755Z,43.63
2019-01-02T05:25:02.383Z,44.48
2019-01-02T05:29:07.059Z,42.03
2019-01-02T05:33:11.624Z,44.58
2019-01-02T05:37:16.170Z,42.23
2019-01-02T05:41:20.672Z,45.25
2019-01-02T05:45:25.218Z,37.20
2019-01-02T05:49:29.765Z,39.40
2019-01-02T05:53:34.306Z,42.83
2019-01-02T05:57:38.861Z,36.57
2019-01-02T06:01:43.350Z,40.25
2019-01-02T06:05:47.922Z,36.60
2019-01-02T06:09:52.462Z,33.00
2019-01-02T06:13:57.000Z,45.30
2019-01-02T06:18:01.544Z,36.05
2019-01-02T06:22:06.116Z,36.73
2019-01-02T06:26:10.675Z,38.83
2019-01-02T06:30:15.261Z,37.88
2019-01-02T06:34:19.819Z,37.78
2019-01-02T06:38:24.371Z,34.97
2019-01-02T06:42:28.891Z,38.15
2019-01-02T06:46:33.457Z,36.23
2019-01-02T06:50:38.011Z,35.03
2019-01-02T06:54:42.575Z,33.38
2019-01-02T06:58:47.136Z,28.42
2019-01-02T07:02:51.658Z,35.52
2019-01-02T07:06:56.208Z,26.27
2019-01-02T07:11:00.777Z,27.48
2019-01-02T07:15:05.859Z,29.00
2019-01-02T07:19:10.480Z,28.77
2019-01-02T07:23:15.037Z,31.12
2019-01-02T07:27:19.585Z,28.07
2019-01-02T07:31:24.159Z,24.65
2019-01-02T07:36:12.580Z,25.57
2019-01-02T07:40:54.057Z,30.30
2019-01-02T07:45:42.218Z,28.43
2019-01-02T07:50:42.944Z,25.23
2019-01-02T07:55:26.575Z,25.95
2019-01-02T08:00:04.719Z,28.92
2019-01-02T08:04:56.276Z,25.93
2019-01-02T08:09:31.145Z,23.03
2019-01-02T08:14:12.871Z,20.43
2019-01-02T08:19:22.775Z,23.10
2019-01-02T08:24:00.095Z,25.17
2019-01-02T08:28:40.252Z,20.75
2019-01-02T08:33:27.040Z,19.32
2019-01-02T08:38:16.976Z,18.57
2019-01-02T08:43:02.912Z,20.77
2019-01-02T08:47:47.958Z,23.45
2019-01-02T08:52:51.683Z,22.45
2019-01-02T08:57:36.343Z,19.90
2019-01-02T09:02:16.601Z,17.40
2019-01-02T09:07:21.623Z,20.05
2019-01-02T09:11:38.970Z,10.95
2019-01-02T09:16:19.752Z,12.75
2019-01-02T09:21:19.029Z,11.73
2019-01-02T09:26:08.091Z,10.30
2019-01-02T09:30:52.378Z,9.35
2019-01-02T09:40:16.522Z,8.48
2019-01-02T09:45:02.891Z,8.58
2019-01-02T09:49:44.483Z,9.68
2019-01-02T09:54:26.019Z,9.78
2019-01-02T10:03:52.676Z,6.97
2019-01-02T10:08:11.144Z,7.08
2019-01-02T10:12:32.257Z,4.65
2019-01-02T10:17:26.468Z,7.33
2019-01-02T10:22:33.204Z,4.65
2019-01-02T10:27:04.000Z,4.60
2019-01-02T10:31:42.834Z,7.05
2019-01-02T10:36:31.386Z,4.22
2019-01-02T10:41:21.589Z,4.85
2019-01-02T10:46:03.719Z,4.45
2019-01-02T10:50:22.301Z,4.08
2019-01-02T10:55:29.442Z,5.62
2019-01-02T11:00:10.311Z,5.73
2019-01-02T11:04:51.574Z,6.53
2019-01-02T11:09:25.079Z,4.75
2019-01-02T11:14:10.775Z,6.17
2019-01-02T11:19:02.147Z,4.60
2019-01-02T11:24:12.011Z,5.42
2019-01-02T11:29:09.332Z,4.67
2019-01-02T11:38:09.046Z,6.47
2019-01-02T11:42:37.279Z,5.28
2019-01-02T11:46:41.874Z,3.60
2019-01-02T11:50:46.426Z,3.92
2019-01-02T11:54:50.951Z,4.77
2019-01-02T11:58:55.507Z,4.15
2019-01-02T12:03:00.100Z,5.30
2019-01-02T12:07:04.617Z,3.55
2019-01-02T12:11:09.267Z,4.05
2019-01-02T12:15:13.808Z,6.53
2019-01-02T12:19:18.354Z,3.40
2019-01-02T12:23:22.953Z,3.43
2019-01-02T12:27:27.492Z,3.90
2019-01-02T12:31:32.036Z,3.85
2019-01-02T12:35:36.644Z,3.70
2019-01-02T12:39:41.175Z,2.17
2019-01-02T12:43:45.767Z,3.95
2019-01-02T12:47:50.312Z,3.77
2019-01-02T12:51:54.879Z,2.20
2019-01-02T12:55:59.395Z,3.35
2019-01-02T13:00:04.465Z,3.08
2019-01-02T13:04:31.334Z,3.87
2019-01-02T13:09:10.304Z,4.58
2019-01-02T13:13:57.917Z,1.87
2019-01-02T13:18:41.609Z,2.70
2019-01-02T13:23:26.402Z,2.22
2019-01-02T13:28:11.166Z,2.05
2019-01-02T13:33:12.503Z,2.63
2019-01-02T13:37:52.270Z,4.40
2019-01-02T13:49:40.431Z,3.17
2019-01-02T13:53:44.962Z,2.70
2019-01-02T13:57:49.499Z,2.47
2019-01-02T14:01:54.057Z,3.23
2019-01-02T14:05:58.635Z,2.95
2019-01-02T14:10:03.215Z,2.55
2019-01-02T14:14:07.729Z,2.70
2019-01-02T14:18:12.289Z,3.15
2019-01-02T14:22:16.899Z,3.45
2019-01-02T14:26:21.440Z,2.92
2019-01-02T14:30:25.934Z,2.83
2019-01-02T14:34:30.516Z,1.90
2019-01-02T14:38:35.311Z,3.40
2019-01-02T14:45:26.326Z,1.75
2019-01-02T14:49:30.850Z,2.35
2019-01-02T14:53:35.408Z,2.47
2019-01-02T14:57:40.076Z,3.15
2019-01-02T15:01:44.665Z,3.33
2019-01-02T15:05:49.211Z,2.60
2019-01-02T15:09:53.759Z,3.15
2019-01-02T15:30:01.242Z,3.12
2019-01-02T15:41:57.080Z,2.22
2019-01-02T16:01:00.653Z,4.20
2019-01-02T16:05:05.476Z,2.93
2019-01-02T16:09:10.023Z,2.17
2019-01-02T16:13:14.518Z,2.87
2019-01-02T16:17:19.108Z,2.80
2019-01-02T16:21:23.666Z,4.70
2019-01-02T18:20:05.443Z,4.33
2019-01-02T18:39:16.173Z,5.28
2019-01-02T18:44:39.990Z,4.20
2019-01-02T18:50:12.378Z,3.92
2019-01-02T18:54:16.930Z,6.05
2019-01-02T19:08:44.510Z,9.20
2019-01-02T19:12:49.066Z,5.50
2019-01-02T19:29:58.132Z,4.80
2019-01-02T19:34:02.663Z,5.37
2019-01-02T19:39:32.790Z,6.70
2019-01-02T19:43:37.356Z,4.25
2019-01-02T19:47:41.903Z,4.20
2019-01-02T19:51:46.407Z,6.97
2019-01-02T19:55:50.957Z,4.23
2019-01-02T19:59:55.495Z,6.67
2019-01-02T20:04:00.035Z,6.35
2019-01-02T20:11:40.665Z,5.53
2019-01-02T20:15:45.185Z,6.25
2019-01-02T20:19:49.727Z,6.08
2019-01-02T20:23:54.287Z,5.87
2019-01-02T20:27:58.799Z,8.78
2019-01-02T20:32:04.334Z,5.87
2019-01-02T20:36:09.027Z,5.37
2019-01-02T20:40:13.552Z,6.35
2019-01-02T20:44:18.075Z,7.65
2019-01-02T20:48:22.577Z,6.03
2019-01-02T20:52:27.112Z,6.67
2019-01-02T20:56:31.652Z,7.80
2019-01-02T21:02:55.371Z,10.63
2019-01-02T21:09:51.744Z,6.78
2019-01-02T21:13:56.312Z,6.92
2019-01-02T21:18:00.839Z,7.70
2019-01-02T21:31:14.887Z,8.40
2019-01-02T21:35:19.423Z,6.70
2019-01-02T21:41:51.957Z,9.58
2019-01-02T21:54:19.771Z,5.72
2019-01-02T21:58:24.299Z,8.90
2019-01-02T22:02:28.839Z,8.48
2019-01-02T22:06:33.364Z,6.80
2019-01-02T22:10:37.884Z,6.72
2019-01-02T22:14:42.413Z,6.08
2019-01-02T22:18:46.960Z,8.25
2019-01-02T22:22:51.530Z,5.20
2019-01-02T22:26:56.067Z,8.08
2019-01-02T22:31:00.607Z,5.57
2019-01-02T22:35:05.287Z,7.55
2019-01-02T22:41:53.833Z,6.87
2019-01-02T22:45:58.367Z,8.78
2019-01-02T22:50:02.894Z,6.92
2019-01-02T22:54:07.438Z,7.42
2019-01-02T22:58:11.970Z,8.60
2019-01-02T23:02:22.769Z,10.05
2019-01-02T23:06:43.151Z,6.75
2019-01-02T23:11:05.418Z,8.60
2019-01-02T23:15:36.568Z,6.55
2019-01-02T23:20:06.628Z,7.92
2019-01-02T23:24:42.506Z,7.08
2019-01-02T23:31:34.881Z,6.70
2019-01-02T23:35:56.993Z,7.20
2019-01-02T23:40:19.144Z,5.50
2019-01-02T23:44:48.990Z,7.12
2019-01-02T23:49:11.314Z,8.30
2019-01-02T23:53:25.099Z,10.58
2019-01-02T23:57:51.367Z,6.08
